PWSweather.com
Personal Weather Stations
Station Observations
DW1039
Liberty & Fairfield Townships, Hamilton, OH 45011

Liberty & Fairfield TownshipsHamilton, OH 45011

Lat: 39.3933, Lon: -84.477

Elevation: 780

Station Type: Davis Vantage Pro2 (Daytime Fan Aspirated)

http://www.lfweathercenter.com/

Latest ConditionsUpdated 8:10:12 PM EDT Friday, Oct 31, 2014
Currently Today's Max Today's Min Today's Average
Temperature 39.3°F4.1°C 39.3°F4.1°C 39.3°F4.1°C 39.3°F4.1°C
Dew Point 35.2°F1.8°C 35.2°F1.8°C 35.2°F1.8°C 35.2°F1.8°C
Winds Calm Calm 2.0 mph NW3.2 kmh NW - 1.0 mph 1.6 kmh
Wind Gusts 5.0 mph8.0 kmh 5.0 mph8.0 kmh - -
Humidity 85% 85% 85% 85%
Pressure 30.00 in1015.9 mb 30.00 in1015.9 mb 30.00 in1015.9 mb -
Hour Temp Dew Point Humidity Winds Wind Gusts Pressure Precip Precip Rate Daily Precip Total
07:50 PM 39.3°F4.1°C 35.2°F1.8°C 85% 2.0 mph N3.2 kmh N 6.0 mph9.7 kmh 30.00 in1015.9 mb 0.00 in0.0 mm 0.00 in/hr0.0 mm/hr 0.11 in2.8 mm
07:40 PM 39.3°F4.1°C 35.2°F1.8°C 85% 9.0 mph WNW14.5 kmh WNW 9.0 mph14.5 kmh 29.99 in1015.6 mb 0.00 in0.0 mm 0.00 in/hr0.0 mm/hr 0.11 in2.8 mm
07:30 PM 39.5°F4.2°C 35.4°F1.9°C 85% Calm Calm 11.0 mph17.7 kmh 29.99 in1015.6 mb 0.00 in0.0 mm 0.00 in/hr0.0 mm/hr 0.11 in2.8 mm
07:20 PM 39.5°F4.2°C 35.4°F1.9°C 85% 5.0 mph WNW8.0 kmh WNW 10.0 mph16.1 kmh 29.99 in1015.6 mb 0.00 in0.0 mm 0.00 in/hr0.0 mm/hr 0.11 in2.8 mm
07:10 PM 39.6°F4.2°C 35.5°F1.9°C 85% Calm Calm 6.0 mph9.7 kmh 29.99 in1015.6 mb 0.00 in0.0 mm 0.00 in/hr0.0 mm/hr 0.11 in2.8 mm
07:00 PM 39.6°F4.2°C 35.5°F1.9°C 85% 4.0 mph WNW6.4 kmh WNW 9.0 mph14.5 kmh 29.99 in1015.6 mb 0.00 in0.0 mm 0.00 in/hr0.0 mm/hr 0.11 in2.8 mm
06:50 PM 39.6°F4.2°C 35.5°F1.9°C 85% 4.0 mph W6.4 kmh W 7.0 mph11.3 kmh 29.99 in1015.6 mb 0.00 in0.0 mm 0.00 in/hr0.0 mm/hr 0.11 in2.8 mm
06:40 PM 39.7°F4.3°C 35.6°F2.0°C 85% Calm Calm 5.0 mph8.0 kmh 29.99 in1015.6 mb 0.00 in0.0 mm 0.00 in/hr0.0 mm/hr 0.11 in2.8 mm
06:30 PM 39.7°F4.3°C 35.6°F2.0°C 85% Calm Calm 10.0 mph16.1 kmh 29.98 in1015.2 mb 0.00 in0.0 mm 0.00 in/hr0.0 mm/hr 0.11 in2.8 mm
06:20 PM 39.7°F4.3°C 35.6°F2.0°C 85% 6.0 mph W9.7 kmh W 10.0 mph16.1 kmh 29.98 in1015.2 mb 0.00 in0.0 mm 0.00 in/hr0.0 mm/hr 0.11 in2.8 mm
06:10 PM 39.8°F4.3°C 35.4°F1.9°C 84% 6.0 mph WSW9.7 kmh WSW 11.0 mph17.7 kmh 29.98 in1015.2 mb 0.00 in0.0 mm 0.00 in/hr0.0 mm/hr 0.11 in2.8 mm
06:00 PM 40.0°F4.4°C 35.6°F2.0°C 84% Calm Calm 9.0 mph14.5 kmh 29.98 in1015.2 mb 0.00 in0.0 mm 0.00 in/hr0.0 mm/hr 0.11 in2.8 mm
05:50 PM 40.5°F4.7°C 36.4°F2.4°C 85% 1.0 mph WNW1.6 kmh WNW 13.0 mph20.9 kmh 29.97 in1014.9 mb 0.00 in0.0 mm 0.00 in/hr0.0 mm/hr 0.11 in2.8 mm
05:40 PM 40.9°F4.9°C 36.8°F2.7°C 85% 1.0 mph SW1.6 kmh SW 6.0 mph9.7 kmh 29.97 in1014.9 mb 0.00 in0.0 mm 0.00 in/hr0.0 mm/hr 0.11 in2.8 mm
05:30 PM 40.9°F4.9°C 36.5°F2.5°C 84% 3.0 mph WNW4.8 kmh WNW 3.0 mph4.8 kmh 29.96 in1014.6 mb 0.00 in0.0 mm 0.00 in/hr0.0 mm/hr 0.11 in2.8 mm
05:20 PM 41.2°F5.1°C 36.7°F2.6°C 84% 4.0 mph WNW6.4 kmh WNW 9.0 mph14.5 kmh 29.96 in1014.6 mb 0.00 in0.0 mm 0.00 in/hr0.0 mm/hr 0.11 in2.8 mm
05:10 PM 41.4°F5.2°C 37.2°F2.9°C 85% 2.0 mph W3.2 kmh W 7.0 mph11.3 kmh 29.96 in1014.6 mb 0.00 in0.0 mm 0.00 in/hr0.0 mm/hr 0.11 in2.8 mm
05:00 PM 41.1°F5.1°C 36.6°F2.6°C 84% 4.0 mph W6.4 kmh W 8.0 mph12.9 kmh 29.97 in1014.9 mb 0.00 in0.0 mm 0.00 in/hr0.0 mm/hr 0.11 in2.8 mm
04:50 PM 41.0°F5.0°C 36.5°F2.5°C 84% 2.0 mph N3.2 kmh N 5.0 mph8.0 kmh 29.96 in1014.6 mb 0.00 in0.0 mm 0.00 in/hr0.0 mm/hr 0.11 in2.8 mm
04:40 PM 40.8°F4.9°C 36.4°F2.4°C 84% Calm Calm 9.0 mph14.5 kmh 29.96 in1014.6 mb 0.01 in0.3 mm 0.00 in/hr0.0 mm/hr 0.11 in2.8 mm
04:30 PM 40.8°F4.9°C 36.4°F2.4°C 84% Calm Calm 13.0 mph20.9 kmh 29.96 in1014.6 mb 0.01 in0.3 mm 0.00 in/hr0.0 mm/hr 0.11 in2.8 mm
04:20 PM 41.3°F5.2°C 37.1°F2.8°C 85% 3.0 mph W4.8 kmh W 6.0 mph9.7 kmh 29.95 in1014.2 mb 0.01 in0.3 mm 0.00 in/hr0.0 mm/hr 0.11 in2.8 mm
04:10 PM 41.3°F5.2°C 37.1°F2.8°C 85% Calm Calm 7.0 mph11.3 kmh 29.96 in1014.6 mb 0.01 in0.3 mm 0.00 in/hr0.0 mm/hr 0.11 in2.8 mm
04:00 PM 41.3°F5.2°C 37.4°F3.0°C 86% 2.0 mph NW3.2 kmh NW 9.0 mph14.5 kmh 29.95 in1014.2 mb 0.01 in0.3 mm 0.00 in/hr0.0 mm/hr 0.11 in2.8 mm
03:50 PM 41.0°F5.0°C 37.1°F2.8°C 86% 2.0 mph NW3.2 kmh NW 10.0 mph16.1 kmh 29.95 in1014.2 mb 0.02 in0.5 mm 0.06 in/hr1.5 mm/hr 0.11 in2.8 mm
03:40 PM 40.4°F4.7°C 36.6°F2.6°C 86% Calm Calm 6.0 mph9.7 kmh 29.95 in1014.2 mb 0.01 in0.3 mm 0.00 in/hr0.0 mm/hr 0.10 in2.5 mm
03:30 PM 40.2°F4.6°C 36.4°F2.4°C 86% 3.0 mph W4.8 kmh W 9.0 mph14.5 kmh 29.95 in1014.2 mb 0.02 in0.5 mm 0.00 in/hr0.0 mm/hr 0.10 in2.5 mm
03:20 PM 40.1°F4.5°C 36.3°F2.4°C 86% 5.0 mph WNW8.0 kmh WNW 19.0 mph30.6 kmh 29.95 in1014.2 mb 0.02 in0.5 mm 0.00 in/hr0.0 mm/hr 0.10 in2.5 mm
03:10 PM 40.4°F4.7°C 36.6°F2.6°C 86% 7.0 mph SSW11.3 kmh SSW 14.0 mph22.5 kmh 29.95 in1014.2 mb 0.02 in0.5 mm 0.00 in/hr0.0 mm/hr 0.10 in2.5 mm
03:00 PM 40.4°F4.7°C 36.6°F2.6°C 86% Calm Calm 11.0 mph17.7 kmh 29.95 in1014.2 mb 0.03 in0.8 mm 0.01 in/hr0.3 mm/hr 0.10 in2.5 mm
02:50 PM 40.2°F4.6°C 36.4°F2.4°C 86% 5.0 mph NW8.0 kmh NW 10.0 mph16.1 kmh 29.95 in1014.2 mb 0.02 in0.5 mm 0.00 in/hr0.0 mm/hr 0.09 in2.3 mm
02:40 PM 40.2°F4.6°C 36.4°F2.4°C 86% Calm Calm 10.0 mph16.1 kmh 29.95 in1014.2 mb 0.03 in0.8 mm 0.06 in/hr1.5 mm/hr 0.09 in2.3 mm
02:30 PM 40.2°F4.6°C 36.4°F2.4°C 86% 11.0 mph NW17.7 kmh NW 18.0 mph29.0 kmh 29.95 in1014.2 mb 0.02 in0.5 mm 0.00 in/hr0.0 mm/hr 0.08 in2.0 mm
02:20 PM 40.6°F4.8°C 36.8°F2.7°C 86% 6.0 mph NNW9.7 kmh NNW 13.0 mph20.9 kmh 29.95 in1014.2 mb 0.04 in1.0 mm 0.00 in/hr0.0 mm/hr 0.08 in2.0 mm
02:10 PM 41.0°F5.0°C 37.1°F2.8°C 86% 4.0 mph NNW6.4 kmh NNW 9.0 mph14.5 kmh 29.95 in1014.2 mb 0.06 in1.5 mm 0.00 in/hr0.0 mm/hr 0.08 in2.0 mm
02:00 PM 41.0°F5.0°C 37.1°F2.8°C 86% 5.0 mph NW8.0 kmh NW 16.0 mph25.7 kmh 29.95 in1014.2 mb 0.06 in1.5 mm 0.00 in/hr0.0 mm/hr 0.08 in2.0 mm
01:50 PM 41.1°F5.1°C 37.2°F2.9°C 86% 2.0 mph NW3.2 kmh NW 11.0 mph17.7 kmh 29.95 in1014.2 mb 0.07 in1.8 mm 0.00 in/hr0.0 mm/hr 0.08 in2.0 mm
01:40 PM 41.4°F5.2°C 37.2°F2.9°C 85% 4.0 mph NW6.4 kmh NW 11.0 mph17.7 kmh 29.95 in1014.2 mb 0.07 in1.8 mm 0.00 in/hr0.0 mm/hr 0.08 in2.0 mm
01:30 PM 42.4°F5.8°C 38.2°F3.4°C 85% Calm Calm 15.0 mph24.1 kmh 29.95 in1014.2 mb 0.07 in1.8 mm 0.06 in/hr1.5 mm/hr 0.08 in2.0 mm
01:20 PM 44.2°F6.8°C 40.3°F4.6°C 86% 13.0 mph WNW20.9 kmh WNW 13.0 mph20.9 kmh 29.95 in1014.2 mb 0.06 in1.5 mm 0.06 in/hr1.5 mm/hr 0.07 in1.8 mm
01:10 PM 44.4°F6.9°C 40.5°F4.7°C 86% Calm Calm 6.0 mph9.7 kmh 29.95 in1014.2 mb 0.05 in1.3 mm 0.00 in/hr0.0 mm/hr 0.06 in1.5 mm
01:00 PM 44.6°F7.0°C 40.4°F4.7°C 85% Calm Calm 6.0 mph9.7 kmh 29.96 in1014.6 mb 0.05 in1.3 mm 0.01 in/hr0.3 mm/hr 0.06 in1.5 mm
12:50 PM 44.7°F7.1°C 40.5°F4.7°C 85% Calm Calm 5.0 mph8.0 kmh 29.96 in1014.6 mb 0.04 in1.0 mm 0.06 in/hr1.5 mm/hr 0.05 in1.3 mm
12:40 PM 44.7°F7.1°C 40.5°F4.7°C 85% Calm Calm 5.0 mph8.0 kmh 29.96 in1014.6 mb 0.03 in0.8 mm 0.00 in/hr0.0 mm/hr 0.04 in1.0 mm
12:30 PM 44.9°F7.2°C 40.7°F4.8°C 85% Calm Calm 9.0 mph14.5 kmh 29.96 in1014.6 mb 0.03 in0.8 mm 0.06 in/hr1.5 mm/hr 0.04 in1.0 mm
12:20 PM 45.3°F7.4°C 41.1°F5.1°C 85% Calm Calm 6.0 mph9.7 kmh 29.97 in1014.9 mb 0.02 in0.5 mm 0.00 in/hr0.0 mm/hr 0.03 in0.8 mm
12:10 PM 45.3°F7.4°C 41.1°F5.1°C 85% Calm Calm 3.0 mph4.8 kmh 29.97 in1014.9 mb 0.02 in0.5 mm 0.06 in/hr1.5 mm/hr 0.03 in0.8 mm
12:00 PM 45.2°F7.3°C 41.0°F5.0°C 85% Calm Calm 2.0 mph3.2 kmh 29.97 in1014.9 mb 0.01 in0.3 mm 0.01 in/hr0.3 mm/hr 0.02 in0.5 mm
11:50 AM 45.2°F7.3°C 40.7°F4.8°C 84% Calm Calm 4.0 mph6.4 kmh 29.97 in1014.9 mb 0.00 in0.0 mm 0.00 in/hr0.0 mm/hr 0.01 in0.3 mm
11:40 AM 45.3°F7.4°C 40.8°F4.9°C 84% Calm Calm 2.0 mph3.2 kmh 29.97 in1014.9 mb 0.00 in0.0 mm 0.00 in/hr0.0 mm/hr 0.01 in0.3 mm
11:30 AM 45.2°F7.3°C 40.7°F4.8°C 84% 1.0 mph SW1.6 kmh SW 5.0 mph8.0 kmh 29.97 in1014.9 mb 0.00 in0.0 mm 0.00 in/hr0.0 mm/hr 0.01 in0.3 mm
11:20 AM 45.1°F7.3°C 40.6°F4.8°C 84% Calm Calm 2.0 mph3.2 kmh 29.97 in1014.9 mb 0.00 in0.0 mm 0.00 in/hr0.0 mm/hr 0.01 in0.3 mm
11:10 AM 44.9°F7.2°C 40.4°F4.7°C 84% Calm Calm 3.0 mph4.8 kmh 29.97 in1014.9 mb 0.00 in0.0 mm 0.00 in/hr0.0 mm/hr 0.01 in0.3 mm
11:00 AM 44.8°F7.1°C 40.3°F4.6°C 84% 2.0 mph SSW3.2 kmh SSW 2.0 mph3.2 kmh 29.98 in1015.2 mb 0.00 in0.0 mm 0.00 in/hr0.0 mm/hr 0.01 in0.3 mm
10:50 AM 44.5°F6.9°C 40.0°F4.4°C 84% 2.0 mph SSW3.2 kmh SSW 4.0 mph6.4 kmh 29.98 in1015.2 mb 0.00 in0.0 mm 0.00 in/hr0.0 mm/hr 0.01 in0.3 mm
10:40 AM 44.5°F6.9°C 40.0°F4.4°C 84% 2.0 mph SSW3.2 kmh SSW 5.0 mph8.0 kmh 29.98 in1015.2 mb 0.00 in0.0 mm 0.00 in/hr0.0 mm/hr 0.01 in0.3 mm
10:30 AM 44.1°F6.7°C 39.9°F4.4°C 85% Calm Calm 5.0 mph8.0 kmh 29.98 in1015.2 mb 0.00 in0.0 mm 0.00 in/hr0.0 mm/hr 0.01 in0.3 mm
10:20 AM 43.7°F6.5°C 39.5°F4.2°C 85% 1.0 mph SSW1.6 kmh SSW 5.0 mph8.0 kmh 29.99 in1015.6 mb 0.00 in0.0 mm 0.00 in/hr0.0 mm/hr 0.01 in0.3 mm
10:10 AM 43.4°F6.3°C 39.5°F4.2°C 86% Calm Calm 3.0 mph4.8 kmh 29.99 in1015.6 mb 0.00 in0.0 mm 0.00 in/hr0.0 mm/hr 0.01 in0.3 mm
10:00 AM 43.0°F6.1°C 39.1°F3.9°C 86% Calm Calm 3.0 mph4.8 kmh 29.99 in1015.6 mb 0.00 in0.0 mm 0.00 in/hr0.0 mm/hr 0.01 in0.3 mm
09:50 AM 42.9°F6.1°C 39.3°F4.1°C 87% Calm Calm 1.0 mph1.6 kmh 29.99 in1015.6 mb 0.00 in0.0 mm 0.00 in/hr0.0 mm/hr 0.01 in0.3 mm
09:40 AM 42.5°F5.8°C 38.9°F3.8°C 87% Calm Calm 1.0 mph1.6 kmh 30.00 in1015.9 mb 0.00 in0.0 mm 0.00 in/hr0.0 mm/hr 0.01 in0.3 mm
09:30 AM 42.5°F5.8°C 38.9°F3.8°C 87% Calm Calm 3.0 mph4.8 kmh 30.00 in1015.9 mb 0.00 in0.0 mm 0.00 in/hr0.0 mm/hr 0.01 in0.3 mm
09:20 AM 42.3°F5.7°C 38.7°F3.7°C 87% Calm Calm 2.0 mph3.2 kmh 30.00 in1015.9 mb 0.00 in0.0 mm 0.00 in/hr0.0 mm/hr 0.01 in0.3 mm
09:10 AM 42.1°F5.6°C 38.5°F3.6°C 87% Calm Calm 1.0 mph1.6 kmh 30.00 in1015.9 mb 0.00 in0.0 mm 0.00 in/hr0.0 mm/hr 0.01 in0.3 mm
09:00 AM 41.6°F5.3°C 38.0°F3.3°C 87% Calm Calm 1.0 mph1.6 kmh 30.00 in1015.9 mb 0.00 in0.0 mm 0.00 in/hr0.0 mm/hr 0.01 in0.3 mm
08:50 AM 40.5°F4.7°C 36.9°F2.7°C 87% Calm Calm -- 30.00 in1015.9 mb 0.00 in0.0 mm 0.00 in/hr0.0 mm/hr 0.01 in0.3 mm
08:40 AM 39.8°F4.3°C 36.3°F2.4°C 87% Calm Calm -- 30.00 in1015.9 mb 0.00 in0.0 mm 0.00 in/hr0.0 mm/hr 0.01 in0.3 mm
08:30 AM 39.8°F4.3°C 36.3°F2.4°C 87% Calm Calm -- 30.00 in1015.9 mb 0.00 in0.0 mm 0.00 in/hr0.0 mm/hr 0.01 in0.3 mm
08:20 AM 39.8°F4.3°C 36.0°F2.2°C 86% Calm Calm -- 30.00 in1015.9 mb 0.00 in0.0 mm 0.00 in/hr0.0 mm/hr 0.01 in0.3 mm
08:10 AM 40.1°F4.5°C 36.3°F2.4°C 86% Calm Calm -- 30.00 in1015.9 mb 0.00 in0.0 mm 0.00 in/hr0.0 mm/hr 0.01 in0.3 mm
08:00 AM 40.3°F4.6°C 36.5°F2.5°C 86% Calm Calm -- 30.00 in1015.9 mb 0.00 in0.0 mm 0.00 in/hr0.0 mm/hr 0.01 in0.3 mm
07:50 AM 40.5°F4.7°C 36.7°F2.6°C 86% Calm Calm -- 30.00 in1015.9 mb 0.00 in0.0 mm 0.00 in/hr0.0 mm/hr 0.01 in0.3 mm
07:40 AM 40.6°F4.8°C 36.8°F2.7°C 86% Calm Calm -- 30.00 in1015.9 mb 0.00 in0.0 mm 0.00 in/hr0.0 mm/hr 0.01 in0.3 mm
07:30 AM 40.8°F4.9°C 36.9°F2.7°C 86% Calm Calm -- 30.00 in1015.9 mb 0.00 in0.0 mm 0.00 in/hr0.0 mm/hr 0.01 in0.3 mm
07:20 AM 41.0°F5.0°C 37.1°F2.8°C 86% Calm Calm -- 30.00 in1015.9 mb 0.00 in0.0 mm 0.00 in/hr0.0 mm/hr 0.01 in0.3 mm
07:10 AM 41.0°F5.0°C 37.1°F2.8°C 86% Calm Calm -- 30.00 in1015.9 mb 0.00 in0.0 mm 0.00 in/hr0.0 mm/hr 0.01 in0.3 mm
07:00 AM 41.1°F5.1°C 37.2°F2.9°C 86% Calm Calm -- 30.00 in1015.9 mb 0.00 in0.0 mm 0.00 in/hr0.0 mm/hr 0.01 in0.3 mm
06:50 AM 41.4°F5.2°C 37.5°F3.1°C 86% Calm Calm -- 30.00 in1015.9 mb 0.00 in0.0 mm 0.00 in/hr0.0 mm/hr 0.01 in0.3 mm
06:40 AM 41.9°F5.5°C 38.0°F3.3°C 86% Calm Calm -- 30.01 in1016.3 mb 0.00 in0.0 mm 0.00 in/hr0.0 mm/hr 0.01 in0.3 mm
06:30 AM 42.2°F5.7°C 38.3°F3.5°C 86% Calm Calm -- 30.01 in1016.3 mb 0.00 in0.0 mm 0.00 in/hr0.0 mm/hr 0.01 in0.3 mm
06:20 AM 42.4°F5.8°C 38.5°F3.6°C 86% Calm Calm -- 30.02 in1016.6 mb 0.00 in0.0 mm 0.00 in/hr0.0 mm/hr 0.01 in0.3 mm
06:10 AM 42.4°F5.8°C 38.5°F3.6°C 86% Calm Calm -- 30.01 in1016.3 mb 0.00 in0.0 mm 0.00 in/hr0.0 mm/hr 0.01 in0.3 mm
06:00 AM 42.5°F5.8°C 38.6°F3.7°C 86% Calm Calm -- 30.02 in1016.6 mb 0.00 in0.0 mm 0.00 in/hr0.0 mm/hr 0.01 in0.3 mm
05:50 AM 42.5°F5.8°C 38.6°F3.7°C 86% Calm Calm -- 30.02 in1016.6 mb 0.00 in0.0 mm 0.00 in/hr0.0 mm/hr 0.01 in0.3 mm
05:40 AM 42.4°F5.8°C 38.5°F3.6°C 86% Calm Calm -- 30.02 in1016.6 mb 0.00 in0.0 mm 0.00 in/hr0.0 mm/hr 0.01 in0.3 mm
05:30 AM 42.5°F5.8°C 38.6°F3.7°C 86% Calm Calm 1.0 mph1.6 kmh 30.02 in1016.6 mb 0.00 in0.0 mm 0.00 in/hr0.0 mm/hr 0.01 in0.3 mm
05:20 AM 42.4°F5.8°C 38.2°F3.4°C 85% Calm Calm -- 30.02 in1016.6 mb 0.00 in0.0 mm 0.00 in/hr0.0 mm/hr 0.01 in0.3 mm
05:10 AM 42.5°F5.8°C 38.3°F3.5°C 85% Calm Calm -- 30.02 in1016.6 mb 0.01 in0.3 mm 0.00 in/hr0.0 mm/hr 0.01 in0.3 mm
05:00 AM 42.5°F5.8°C 38.3°F3.5°C 85% Calm Calm -- 30.02 in1016.6 mb 0.01 in0.3 mm 0.00 in/hr0.0 mm/hr 0.01 in0.3 mm
04:50 AM 42.6°F5.9°C 38.4°F3.6°C 85% Calm Calm -- 30.02 in1016.6 mb 0.01 in0.3 mm 0.00 in/hr0.0 mm/hr 0.01 in0.3 mm
04:40 AM 42.7°F5.9°C 38.5°F3.6°C 85% Calm Calm -- 30.02 in1016.6 mb 0.01 in0.3 mm 0.00 in/hr0.0 mm/hr 0.01 in0.3 mm
04:30 AM 42.5°F5.8°C 38.3°F3.5°C 85% Calm Calm -- 30.03 in1016.9 mb 0.01 in0.3 mm 0.00 in/hr0.0 mm/hr 0.01 in0.3 mm
04:20 AM 42.4°F5.8°C 37.9°F3.3°C 84% Calm Calm -- 30.03 in1016.9 mb 0.01 in0.3 mm 0.06 in/hr1.5 mm/hr 0.01 in0.3 mm
04:10 AM 42.6°F5.9°C 38.1°F3.4°C 84% Calm Calm -- 30.03 in1016.9 mb 0.00 in0.0 mm 0.00 in/hr0.0 mm/hr 0.00 in0.0 mm
04:00 AM 42.8°F6.0°C 38.3°F3.5°C 84% Calm Calm -- 30.04 in1017.3 mb 0.00 in0.0 mm 0.00 in/hr0.0 mm/hr 0.00 in0.0 mm
03:50 AM 42.8°F6.0°C 38.0°F3.3°C 83% Calm Calm -- 30.04 in1017.3 mb 0.00 in0.0 mm 0.00 in/hr0.0 mm/hr 0.00 in0.0 mm
03:40 AM 42.8°F6.0°C 38.0°F3.3°C 83% Calm Calm 1.0 mph1.6 kmh 30.04 in1017.3 mb 0.00 in0.0 mm 0.00 in/hr0.0 mm/hr 0.00 in0.0 mm
03:30 AM 42.8°F6.0°C 37.7°F3.2°C 82% Calm Calm -- 30.05 in1017.6 mb 0.00 in0.0 mm 0.00 in/hr0.0 mm/hr 0.00 in0.0 mm
03:20 AM 42.8°F6.0°C 37.7°F3.2°C 82% Calm Calm -- 30.05 in1017.6 mb 0.00 in0.0 mm 0.00 in/hr0.0 mm/hr 0.00 in0.0 mm
03:10 AM 42.9°F6.1°C 37.8°F3.2°C 82% Calm Calm -- 30.05 in1017.6 mb 0.00 in0.0 mm 0.00 in/hr0.0 mm/hr 0.00 in0.0 mm
03:00 AM 42.9°F6.1°C 37.8°F3.2°C 82% Calm Calm -- 30.05 in1017.6 mb 0.00 in0.0 mm 0.00 in/hr0.0 mm/hr 0.00 in0.0 mm
02:51 AM 42.9°F6.1°C 37.8°F3.2°C 82% Calm Calm -- 30.05 in1017.6 mb 0.00 in0.0 mm 0.00 in/hr0.0 mm/hr 0.00 in0.0 mm
02:40 AM 42.9°F6.1°C 37.8°F3.2°C 82% Calm Calm -- 30.05 in1017.6 mb 0.00 in0.0 mm 0.00 in/hr0.0 mm/hr 0.00 in0.0 mm
02:30 AM 42.9°F6.1°C 37.8°F3.2°C 82% 1.0 mph NE1.6 kmh NE 1.0 mph1.6 kmh 30.05 in1017.6 mb 0.00 in0.0 mm 0.00 in/hr0.0 mm/hr 0.00 in0.0 mm
02:20 AM 42.8°F6.0°C 37.7°F3.2°C 82% Calm Calm -- 30.05 in1017.6 mb 0.00 in0.0 mm 0.00 in/hr0.0 mm/hr 0.00 in0.0 mm
02:10 AM 42.8°F6.0°C 37.7°F3.2°C 82% Calm Calm -- 30.05 in1017.6 mb 0.00 in0.0 mm 0.00 in/hr0.0 mm/hr 0.00 in0.0 mm
02:00 AM 42.8°F6.0°C 37.7°F3.2°C 82% Calm Calm 1.0 mph1.6 kmh 30.06 in1017.9 mb 0.00 in0.0 mm 0.00 in/hr0.0 mm/hr 0.00 in0.0 mm
01:50 AM 42.7°F5.9°C 37.6°F3.1°C 82% Calm Calm 2.0 mph3.2 kmh 30.06 in1017.9 mb 0.00 in0.0 mm 0.00 in/hr0.0 mm/hr 0.00 in0.0 mm
01:40 AM 42.7°F5.9°C 37.6°F3.1°C 82% Calm Calm 2.0 mph3.2 kmh 30.06 in1017.9 mb 0.00 in0.0 mm 0.00 in/hr0.0 mm/hr 0.00 in0.0 mm
01:30 AM 42.7°F5.9°C 37.6°F3.1°C 82% Calm Calm 2.0 mph3.2 kmh 30.06 in1017.9 mb 0.00 in0.0 mm 0.00 in/hr0.0 mm/hr 0.00 in0.0 mm
01:20 AM 42.4°F5.8°C 37.3°F2.9°C 82% Calm Calm -- 30.07 in1018.3 mb 0.00 in0.0 mm 0.00 in/hr0.0 mm/hr 0.00 in0.0 mm
01:10 AM 42.1°F5.6°C 37.0°F2.8°C 82% 3.0 mph NE4.8 kmh NE 3.0 mph4.8 kmh 30.07 in1018.3 mb 0.00 in0.0 mm 0.00 in/hr0.0 mm/hr 0.00 in0.0 mm
01:00 AM 41.9°F5.5°C 36.8°F2.7°C 82% Calm Calm -- 30.07 in1018.3 mb 0.00 in0.0 mm 0.00 in/hr0.0 mm/hr 0.00 in0.0 mm
12:50 AM 41.7°F5.4°C 36.6°F2.6°C 82% Calm Calm -- 30.07 in1018.3 mb 0.00 in0.0 mm 0.00 in/hr0.0 mm/hr 0.00 in0.0 mm
12:40 AM 41.8°F5.4°C 36.4°F2.4°C 81% Calm Calm -- 30.07 in1018.3 mb 0.00 in0.0 mm 0.00 in/hr0.0 mm/hr 0.00 in0.0 mm
12:30 AM 41.6°F5.3°C 36.2°F2.3°C 81% Calm Calm -- 30.07 in1018.3 mb 0.00 in0.0 mm 0.00 in/hr0.0 mm/hr 0.00 in0.0 mm
12:20 AM 41.6°F5.3°C 35.9°F2.2°C 80% Calm Calm -- 30.07 in1018.3 mb 0.00 in0.0 mm 0.00 in/hr0.0 mm/hr 0.00 in0.0 mm
12:10 AM 41.8°F5.4°C 35.8°F2.1°C 79% Calm Calm -- 30.07 in1018.3 mb 0.00 in0.0 mm 0.00 in/hr0.0 mm/hr 0.00 in0.0 mm
12:00 AM 41.8°F5.4°C 35.8°F2.1°C 79% Calm Calm -- 30.07 in1018.3 mb 0.00 in0.0 mm 0.00 in/hr0.0 mm/hr 0.00 in0.0 mm